Time;durP1;ratioP1;P1;durP2;ratioP2;P2;SDS_P1;SDS_P2;PMS_P1;PMS_P2;Temp;Humidity;BMP_temperature;BMP_pressure;BME280_temperature;BME280_humidity;BME280_pressure;Samples;Min_cycle;Max_cycle;Signal;HPM_P1;HPM_P2
2022/08/11 00:02:00;;;;;;;3.27;3.00;;;;;;;;;;4975261;28;20209;-75
2022/08/11 00:04:35;;;;;;;5.60;3.13;;;;;;;;;;4985860;28;20198;-75
2022/08/11 00:07:05;;;;;;;4.73;3.57;;;;;;;;;;4976172;28;20468;-75
2022/08/11 00:09:35;;;;;;;4.70;3.60;;;;;;;;;;4976291;28;20559;-75
2022/08/11 00:12:12;;;;;;;5.47;3.20;;;;;;;;;;4976003;28;20213;-75
2022/08/11 00:14:41;;;;;;;4.63;3.50;;;;;;;;;;4976183;28;20229;-75
2022/08/11 00:17:11;;;;;;;4.40;3.37;;;;;;;;;;4974768;28;20212;-75
2022/08/11 00:19:42;;;;;;;5.50;3.23;;;;;;;;;;4960856;28;20293;-75
2022/08/11 00:22:31;;;;;;;4.33;3.23;;;;;;;;;;4969326;28;20647;-75
2022/08/11 00:25:01;;;;;;;3.80;3.50;;;;;;;;;;4975753;28;20629;-75
2022/08/11 00:27:33;;;;;;;4.17;3.50;;;;;;;;;;4966882;28;20240;-75
2022/08/11 00:30:03;;;;;;;3.90;3.53;;;;;;;;;;4968600;28;20206;-75
2022/08/11 00:32:31;;;;;;;4.60;3.03;;;;;;;;;;4975000;28;20209;-75
2022/08/11 00:35:02;;;;;;;3.70;3.00;;;;;;;;;;4974818;28;20250;-75
2022/08/11 00:37:52;;;;;;;3.50;3.20;;;;;;;;;;4970195;28;20257;-75
2022/08/11 00:40:28;;;;;;;4.00;3.27;;;;;;;;;;4967357;28;20202;-75
2022/08/11 00:43:02;;;;;;;3.87;3.40;;;;;;;;;;4971734;28;20209;-75
2022/08/11 00:45:33;;;;;;;3.40;3.10;;;;;;;;;;4974749;28;20201;-75
2022/08/11 00:48:05;;;;;;;3.67;3.20;;;;;;;;;;4975302;28;20232;-75
2022/08/11 00:50:40;;;;;;;6.83;4.23;;;;;;;;;;4975087;28;20202;-75
2022/08/11 00:53:27;;;;;;;5.47;3.60;;;;;;;;;;4973916;28;20205;-75
2022/08/11 00:56:16;;;;;;;3.37;3.03;;;;;;;;;;4974543;28;20690;-75
2022/08/11 00:59:03;;;;;;;4.17;3.70;;;;;;;;;;4975378;28;20300;-75
2022/08/11 01:02:10;;;;;;;3.63;3.33;;;;;;;;;;4985936;28;20257;-75
2022/08/11 01:04:57;;;;;;;4.50;3.50;;;;;;;;;;4974924;28;20197;-75
2022/08/11 01:07:40;;;;;;;5.73;3.33;;;;;;;;;;4972265;28;20217;-75
2022/08/11 01:10:42;;;;;;;4.20;3.10;;;;;;;;;;4974369;28;20205;-75
2022/08/11 01:13:16;;;;;;;3.63;3.33;;;;;;;;;;4970314;28;20256;-75
2022/08/11 01:16:03;;;;;;;3.70;3.37;;;;;;;;;;4968461;28;20236;-75
2022/08/11 01:18:46;;;;;;;4.23;3.60;;;;;;;;;;4973714;28;20303;-77
2022/08/11 01:21:38;;;;;;;4.53;4.10;;;;;;;;;;4975526;28;20722;-77
2022/08/11 01:24:21;;;;;;;6.33;3.80;;;;;;;;;;4975504;28;20632;-77
2022/08/11 01:27:11;;;;;;;5.43;3.53;;;;;;;;;;4973924;28;20641;-77
2022/08/11 01:30:10;;;;;;;4.70;4.17;;;;;;;;;;4975155;28;20256;-77
2022/08/11 01:32:59;;;;;;;4.23;3.83;;;;;;;;;;4965353;28;20294;-77
2022/08/11 01:35:34;;;;;;;5.23;3.63;;;;;;;;;;4975208;28;20261;-77
2022/08/11 01:38:22;;;;;;;5.47;3.67;;;;;;;;;;4975156;28;20587;-77
2022/08/11 01:40:56;;;;;;;4.90;4.40;;;;;;;;;;4975303;28;20636;-77
2022/08/11 01:46:44;;;;;;;5.60;4.33;;;;;;;;;;4974699;28;20186;-77
2022/08/11 01:49:16;;;;;;;4.93;4.20;;;;;;;;;;4974991;28;20587;-77
2022/08/11 01:52:11;;;;;;;4.83;4.33;;;;;;;;;;4974605;28;20250;-77
2022/08/11 01:54:42;;;;;;;4.53;4.13;;;;;;;;;;4975009;28;20635;-77
2022/08/11 01:57:21;;;;;;;6.23;4.07;;;;;;;;;;4974919;28;20261;-77
2022/08/11 01:59:52;;;;;;;5.23;4.17;;;;;;;;;;4974936;28;20240;-77
2022/08/11 02:05:15;;;;;;;6.87;4.17;;;;;;;;;;4974630;28;20256;-77
2022/08/11 02:07:53;;;;;;;4.90;4.20;;;;;;;;;;4974860;28;20190;-77
2022/08/11 02:13:25;;;;;;;4.47;3.80;;;;;;;;;;4974467;28;20190;-77
2022/08/11 02:16:14;;;;;;;5.27;3.60;;;;;;;;;;4974427;28;20221;-77
2022/08/11 02:24:35;;;;;;;8.17;4.43;;;;;;;;;;4975062;28;20600;-77
2022/08/11 02:27:07;;;;;;;5.87;4.13;;;;;;;;;;4974842;28;20232;-77
2022/08/11 02:29:38;;;;;;;12.20;4.30;;;;;;;;;;4974562;28;20226;-76
2022/08/11 02:35:04;;;;;;;4.73;4.23;;;;;;;;;;4974340;28;20217;-77
2022/08/11 02:37:37;;;;;;;7.47;3.97;;;;;;;;;;4974844;28;20541;-77
2022/08/11 02:40:12;;;;;;;6.47;4.07;;;;;;;;;;4974149;28;20213;-77
2022/08/11 02:42:42;;;;;;;5.20;4.50;;;;;;;;;;4974234;28;20193;-77
2022/08/11 02:45:18;;;;;;;8.10;4.80;;;;;;;;;;4974181;28;20196;-77
2022/08/11 02:50:43;;;;;;;12.83;4.60;;;;;;;;;;4974751;28;20210;-77
2022/08/11 02:53:14;;;;;;;10.93;4.83;;;;;;;;;;4974220;28;20255;-77
2022/08/11 02:55:49;;;;;;;7.23;4.57;;;;;;;;;;4974309;28;20186;-77
2022/08/11 02:58:30;;;;;;;7.03;4.87;;;;;;;;;;4974169;28;20312;-77
2022/08/11 03:01:03;;;;;;;7.30;4.63;;;;;;;;;;4978156;28;20190;-77
2022/08/11 03:03:37;;;;;;;7.37;4.60;;;;;;;;;;4978114;28;20205;-77
2022/08/11 03:06:08;;;;;;;8.03;4.60;;;;;;;;;;4977660;28;20193;-77
2022/08/11 03:08:50;;;;;;;9.17;4.77;;;;;;;;;;4977800;28;20683;-77
2022/08/11 03:17:05;;;;;;;7.97;4.77;;;;;;;;;;4977663;28;20210;-77
2022/08/11 03:19:37;;;;;;;5.63;5.07;;;;;;;;;;4977404;28;20288;-77
2022/08/11 03:22:09;;;;;;;8.87;4.37;;;;;;;;;;4977389;28;20224;-77
2022/08/11 03:24:51;;;;;;;9.93;4.60;;;;;;;;;;4977397;28;20678;-77
2022/08/11 03:27:29;;;;;;;9.73;4.50;;;;;;;;;;4977294;28;20190;-77
2022/08/11 03:30:03;;;;;;;5.87;4.27;;;;;;;;;;4977429;28;20602;-77
2022/08/11 03:32:35;;;;;;;5.37;4.37;;;;;;;;;;4978135;28;20193;-77
2022/08/11 03:35:04;;;;;;;5.10;4.60;;;;;;;;;;4977525;28;20553;-77
2022/08/11 03:37:49;;;;;;;5.40;4.43;;;;;;;;;;4977328;28;20228;-77
2022/08/11 03:43:16;;;;;;;5.00;4.50;;;;;;;;;;4976979;28;20229;-77
2022/08/11 03:45:56;;;;;;;6.03;4.50;;;;;;;;;;4976914;28;20189;-77
2022/08/11 03:48:27;;;;;;;5.40;4.90;;;;;;;;;;4976824;28;20225;-77
2022/08/11 03:51:06;;;;;;;8.27;4.90;;;;;;;;;;4976785;28;20195;-77
2022/08/11 03:53:48;;;;;;;5.53;4.63;;;;;;;;;;4976906;28;20248;-77
2022/08/11 03:56:26;;;;;;;8.00;5.10;;;;;;;;;;4976333;28;20261;-77
2022/08/11 03:59:27;;;;;;;8.33;4.47;;;;;;;;;;4977117;28;20698;-77
2022/08/11 04:02:07;;;;;;;7.90;4.90;;;;;;;;;;4935861;29;20281;-77
2022/08/11 04:04:55;;;;;;;5.77;5.17;;;;;;;;;;4936516;29;20238;-77
2022/08/11 04:07:45;;;;;;;10.97;4.60;;;;;;;;;;4962773;28;20194;-77
2022/08/11 04:10:32;;;;;;;5.37;4.83;;;;;;;;;;4976926;28;20190;-77
2022/08/11 04:13:10;;;;;;;7.03;4.67;;;;;;;;;;4976340;28;20190;-77
2022/08/11 04:15:59;;;;;;;6.20;5.10;;;;;;;;;;4976302;28;20193;-77
2022/08/11 04:18:51;;;;;;;5.90;5.00;;;;;;;;;;4953448;28;20218;-77
2022/08/11 04:21:50;;;;;;;7.80;4.57;;;;;;;;;;4976177;28;20264;-77
2022/08/11 04:24:27;;;;;;;7.03;4.57;;;;;;;;;;4915763;29;20623;-77
2022/08/11 04:27:25;;;;;;;8.47;5.20;;;;;;;;;;4971238;28;20202;-77
2022/08/11 04:30:07;;;;;;;6.67;4.83;;;;;;;;;;4976164;28;20201;-77
2022/08/11 04:33:03;;;;;;;5.40;4.90;;;;;;;;;;4976080;28;20285;-77
2022/08/11 04:35:42;;;;;;;6.30;4.90;;;;;;;;;;4980094;28;20186;-77
2022/08/11 04:38:38;;;;;;;5.97;5.37;;;;;;;;;;4975567;28;20244;-77
2022/08/11 04:41:22;;;;;;;7.20;5.20;;;;;;;;;;4972056;28;20680;-77
2022/08/11 04:44:10;;;;;;;10.47;5.57;;;;;;;;;;4964383;28;20213;-77
2022/08/11 04:46:49;;;;;;;7.20;5.67;;;;;;;;;;4976224;28;20186;-77
2022/08/11 05:07:22;;;;;;;8.50;6.20;;;;;;;;;;4952545;28;20246;-76
2022/08/11 05:10:01;;;;;;;6.73;6.07;;;;;;;;;;4975792;28;20236;-77
2022/08/11 05:12:31;;;;;;;6.20;5.60;;;;;;;;;;4975613;28;20266;-76
2022/08/11 05:35:02;;;;;;;7.47;6.63;;;;;;;;;;4974307;28;20210;-77
2022/08/11 05:37:34;;;;;;;7.63;7.03;;;;;;;;;;4974377;28;20217;-77
2022/08/11 05:57:09;;;;;;;5.47;4.53;;;;;;;;;;4974102;28;20214;-77
2022/08/11 06:00:01;;;;;;;5.37;4.10;;;;;;;;;;4973863;28;20656;-77
2022/08/11 06:02:30;;;;;;;5.70;4.20;;;;;;;;;;4973832;28;20240;-77
2022/08/11 06:04:59;;;;;;;5.20;4.70;;;;;;;;;;4974437;28;20198;-77
2022/08/11 06:07:28;;;;;;;4.40;4.00;;;;;;;;;;4974069;28;20660;-77
2022/08/11 06:10:25;;;;;;;5.57;3.83;;;;;;;;;;4973727;28;20210;-77
2022/08/11 06:12:54;;;;;;;5.83;3.80;;;;;;;;;;4973771;28;20241;-77
2022/08/11 06:15:25;;;;;;;6.13;3.90;;;;;;;;;;4973960;28;20633;-77
2022/08/11 06:17:55;;;;;;;5.10;3.60;;;;;;;;;;4973990;28;20233;-78
2022/08/11 06:20:24;;;;;;;4.27;3.80;;;;;;;;;;4935390;28;1123371;-77
2022/08/11 06:22:57;;;;;;;3.57;3.23;;;;;;;;;;4974493;28;20213;-76
2022/08/11 06:25:32;;;;;;;4.03;2.90;;;;;;;;;;4973815;28;20205;-76
2022/08/11 06:28:00;;;;;;;6.73;2.90;;;;;;;;;;4973806;28;20217;-77
2022/08/11 06:30:41;;;;;;;5.20;3.37;;;;;;;;;;4974845;28;20201;-76
2022/08/11 06:33:11;;;;;;;3.35;2.85;;;;;;;;;;4974161;28;20244;-77
2022/08/11 06:35:47;;;;;;;5.07;3.03;;;;;;;;;;4978688;28;20252;-76
2022/08/11 06:38:20;;;;;;;3.80;2.72;;;;;;;;;;4978374;28;20674;-76
2022/08/11 06:43:39;;;;;;;5.43;2.60;;;;;;;;;;4977804;28;20206;-76
2022/08/11 06:46:26;;;;;;;3.53;2.60;;;;;;;;;;4978130;28;20191;-77
2022/08/11 06:48:56;;;;;;;4.07;2.63;;;;;;;;;;4978350;28;20714;-77
2022/08/11 06:51:24;;;;;;;3.83;2.58;;;;;;;;;;4977936;28;20205;-77
2022/08/11 06:53:55;;;;;;;4.22;2.53;;;;;;;;;;4978517;28;20210;-77
2022/08/11 07:02:33;;;;;;;4.20;2.22;;;;;;;;;;4978230;28;20643;-77
2022/08/11 07:05:06;;;;;;;2.80;2.20;;;;;;;;;;4978005;28;20698;-77
2022/08/11 07:16:42;;;;;;;3.60;2.20;;;;;;;;;;4977888;28;20198;-78
2022/08/11 07:30:30;;;;;;;3.90;1.90;;;;;;;;;;4958028;29;20191;-77
2022/08/11 07:33:01;;;;;;;2.53;2.10;;;;;;;;;;4957946;29;20210;-78
2022/08/11 07:35:34;;;;;;;2.67;2.10;;;;;;;;;;4979699;28;20217;-77
2022/08/11 07:38:07;;;;;;;6.00;1.95;;;;;;;;;;4958699;29;20241;-77
2022/08/11 07:40:37;;;;;;;7.97;2.20;;;;;;;;;;4957827;29;20267;-78
2022/08/11 07:43:06;;;;;;;7.28;1.90;;;;;;;;;;4957876;29;20217;-77
2022/08/11 07:53:55;;;;;;;4.47;2.20;;;;;;;;;;4977226;28;20194;-78
2022/08/11 07:56:35;;;;;;;2.20;2.00;;;;;;;;;;4977325;28;20605;-77
2022/08/11 08:19:13;;;;;;;5.82;2.10;;;;;;;;;;4976108;28;20241;-77
2022/08/11 08:21:42;;;;;;;3.88;2.42;;;;;;;;;;4976325;28;20251;-77
2022/08/11 08:24:14;;;;;;;5.97;2.20;;;;;;;;;;4976568;28;20190;-77
2022/08/11 08:26:59;;;;;;;3.40;2.17;;;;;;;;;;4976545;28;20636;-78
2022/08/11 08:32:17;;;;;;;3.83;2.05;;;;;;;;;;4976390;28;20194;-77
2022/08/11 08:34:46;;;;;;;2.35;2.15;;;;;;;;;;4976357;28;20213;-77
2022/08/11 08:37:15;;;;;;;2.38;1.73;;;;;;;;;;4976359;28;20206;-77
2022/08/11 08:40:07;;;;;;;6.93;2.17;;;;;;;;;;4975819;28;20316;-77
2022/08/11 08:42:40;;;;;;;2.05;1.85;;;;;;;;;;4976231;28;20614;-77
2022/08/11 08:45:17;;;;;;;3.05;1.92;;;;;;;;;;4975888;28;20194;-77
2022/08/11 08:47:48;;;;;;;3.40;1.95;;;;;;;;;;4976003;28;20197;-77
2022/08/11 08:50:22;;;;;;;2.40;2.20;;;;;;;;;;4975867;28;20667;-77
2022/08/11 08:52:56;;;;;;;2.63;1.88;;;;;;;;;;4975724;28;20205;-77
2022/08/11 08:55:27;;;;;;;6.65;2.20;;;;;;;;;;4956009;28;20210;-77
2022/08/11 08:57:59;;;;;;;3.60;1.75;;;;;;;;;;4955547;28;20226;-78
2022/08/11 09:00:38;;;;;;;4.80;1.80;;;;;;;;;;4963783;28;20217;-78
2022/08/11 09:03:06;;;;;;;3.08;1.70;;;;;;;;;;4975841;28;20637;-78
2022/08/11 09:05:55;;;;;;;2.00;1.80;;;;;;;;;;4975841;28;20256;-77
2022/08/11 09:08:24;;;;;;;3.85;1.67;;;;;;;;;;4975220;28;20221;-77
2022/08/11 09:13:43;;;;;;;3.80;1.80;;;;;;;;;;4954724;28;20210;-78
2022/08/11 09:16:11;;;;;;;2.72;1.90;;;;;;;;;;4975576;28;20560;-77
2022/08/11 09:18:43;;;;;;;1.90;1.70;;;;;;;;;;4975481;28;20234;-79
2022/08/11 09:21:13;;;;;;;3.70;2.00;;;;;;;;;;4975417;28;20214;-79
2022/08/11 09:27:01;;;;;;;3.08;1.67;;;;;;;;;;4975270;28;20248;-77
2022/08/11 09:29:31;;;;;;;3.63;1.83;;;;;;;;;;4975532;28;20225;-77
2022/08/11 09:32:00;;;;;;;3.88;2.10;;;;;;;;;;4975401;28;20210;-78
2022/08/11 09:34:29;;;;;;;4.93;1.98;;;;;;;;;;4975301;28;20202;-77
2022/08/11 09:45:49;;;;;;;3.80;1.65;;;;;;;;;;4975550;28;20206;-78
2022/08/11 09:48:18;;;;;;;2.38;1.73;;;;;;;;;;4974957;28;20236;-78
2022/08/11 09:50:49;;;;;;;3.47;1.70;;;;;;;;;;4960773;28;20209;-78
2022/08/11 09:53:18;;;;;;;2.30;1.58;;;;;;;;;;4955737;29;20210;-77
2022/08/11 09:58:51;;;;;;;3.00;1.80;;;;;;;;;;4955822;29;20242;-77
2022/08/11 10:01:26;;;;;;;2.65;1.80;;;;;;;;;;4955722;28;20206;-78
2022/08/11 10:03:58;;;;;;;2.72;1.60;;;;;;;;;;4955381;29;20193;-79
2022/08/11 10:09:22;;;;;;;3.10;1.50;;;;;;;;;;4955765;29;20704;-79
2022/08/11 10:11:53;;;;;;;4.05;1.70;;;;;;;;;;4954733;29;20202;-77
2022/08/11 10:17:13;;;;;;;2.90;1.65;;;;;;;;;;4955265;28;20210;-77
2022/08/11 10:19:43;;;;;;;3.60;1.60;;;;;;;;;;4955925;28;20234;-78
2022/08/11 10:28:04;;;;;;;1.55;1.45;;;;;;;;;;4955031;28;20274;-77
2022/08/11 10:34:00;;;;;;;4.40;1.42;;;;;;;;;;4954832;28;20200;-77
2022/08/11 10:36:30;;;;;;;1.92;1.70;;;;;;;;;;4955306;29;20663;-77
2022/08/11 10:38:59;;;;;;;3.72;1.60;;;;;;;;;;4954506;28;20234;-77
2022/08/11 10:44:37;;;;;;;2.78;1.52;;;;;;;;;;4954776;28;20241;-78
2022/08/11 11:00:57;;;;;;;2.60;1.70;;;;;;;;;;4955419;29;20211;-78
2022/08/11 11:03:29;;;;;;;1.95;1.58;;;;;;;;;;4955671;29;20261;-78
2022/08/11 11:06:02;;;;;;;2.30;1.70;;;;;;;;;;4955291;28;20195;-77
2022/08/11 11:08:53;;;;;;;3.45;1.95;;;;;;;;;;4954446;29;20230;-76
2022/08/11 11:17:54;;;;;;;3.47;1.58;;;;;;;;;;4955095;28;20193;-78
2022/08/11 11:20:11;;;;;;;3.42;1.70;;;;;;;;;;4955964;28;20650;-78
2022/08/11 11:23:03;;;;;;;2.90;1.60;;;;;;;;;;4958394;29;20254;-77
2022/08/11 11:26:05;;;;;;;3.70;1.73;;;;;;;;;;4958335;29;20242;-77
2022/08/11 11:28:40;;;;;;;5.50;1.70;;;;;;;;;;4958500;29;20233;-77
2022/08/11 11:31:13;;;;;;;2.75;1.42;;;;;;;;;;4958627;28;20182;-79
2022/08/11 11:33:51;;;;;;;2.70;1.60;;;;;;;;;;4958283;29;20282;-78
2022/08/11 11:36:43;;;;;;;4.80;1.65;;;;;;;;;;4958079;29;20207;-78
2022/08/11 11:39:12;;;;;;;2.80;1.50;;;;;;;;;;4958713;28;20563;-78
2022/08/11 11:41:42;;;;;;;1.83;1.60;;;;;;;;;;4958569;29;20235;-77
2022/08/11 11:44:12;;;;;;;2.00;1.60;;;;;;;;;;4958324;28;20667;-79
2022/08/11 11:46:44;;;;;;;3.10;1.73;;;;;;;;;;4958227;29;20198;-77
2022/08/11 11:49:14;;;;;;;4.93;1.73;;;;;;;;;;4960050;29;20222;-78
2022/08/11 11:51:47;;;;;;;3.75;1.70;;;;;;;;;;4959452;29;20688;-78
2022/08/11 11:54:18;;;;;;;4.28;1.63;;;;;;;;;;4961401;29;20265;-79
2022/08/11 11:56:46;;;;;;;4.32;1.70;;;;;;;;;;4960636;28;20206;-79
2022/08/11 12:02:02;;;;;;;2.65;1.60;;;;;;;;;;4957949;29;20210;-77
2022/08/11 12:04:41;;;;;;;1.77;1.60;;;;;;;;;;4958003;29;20559;-79
2022/08/11 12:10:08;;;;;;;2.63;1.60;;;;;;;;;;4922770;29;20199;-77
2022/08/11 12:15:22;;;;;;;1.95;1.55;;;;;;;;;;4977098;28;20603;-77
2022/08/11 12:18:11;;;;;;;4.18;1.60;;;;;;;;;;4977874;28;20225;-79
2022/08/11 12:20:40;;;;;;;3.28;1.50;;;;;;;;;;4979074;28;20226;-78
2022/08/11 12:28:57;;;;;;;2.33;1.70;;;;;;;;;;4977388;28;20651;-78
2022/08/11 12:31:25;;;;;;;2.80;1.70;;;;;;;;;;4975790;28;20190;-78
2022/08/11 12:33:55;;;;;;;1.90;1.77;;;;;;;;;;4962553;28;20214;-77
2022/08/11 12:36:23;;;;;;;2.67;1.73;;;;;;;;;;4957539;28;20203;-78
2022/08/11 12:38:54;;;;;;;3.78;1.70;;;;;;;;;;4957857;28;20226;-78
2022/08/11 12:46:58;;;;;;;2.40;1.90;;;;;;;;;;4957540;28;20214;-78
2022/08/11 12:52:17;;;;;;;5.28;1.63;;;;;;;;;;4957262;29;20562;-77
2022/08/11 12:54:50;;;;;;;3.08;1.83;;;;;;;;;;4957277;28;20195;-78
2022/08/11 13:05:42;;;;;;;4.30;1.90;;;;;;;;;;4956461;29;20202;-78
2022/08/11 13:08:13;;;;;;;3.83;1.70;;;;;;;;;;4956836;28;20309;-78
2022/08/11 13:13:30;;;;;;;2.40;1.58;;;;;;;;;;4955568;28;20210;-77
2022/08/11 13:16:20;;;;;;;4.63;1.55;;;;;;;;;;4955667;29;20213;-77
2022/08/11 13:18:49;;;;;;;2.38;1.55;;;;;;;;;;4955208;28;20230;-77
2022/08/11 13:21:20;;;;;;;1.70;1.60;;;;;;;;;;4955313;29;20232;-77
2022/08/11 13:23:50;;;;;;;3.30;1.70;;;;;;;;;;4955520;28;20214;-76
2022/08/11 13:26:31;;;;;;;2.75;1.80;;;;;;;;;;4955202;29;20205;-78
2022/08/11 13:29:16;;;;;;;3.92;1.60;;;;;;;;;;4970985;28;20244;-78
2022/08/11 13:31:45;;;;;;;1.88;1.70;;;;;;;;;;4974555;28;20197;-77
2022/08/11 13:34:14;;;;;;;2.20;1.70;;;;;;;;;;4974181;28;20213;-77
2022/08/11 13:36:43;;;;;;;1.45;1.35;;;;;;;;;;4975789;28;20205;-78
2022/08/11 13:39:11;;;;;;;3.67;1.63;;;;;;;;;;4974219;28;20743;-78
2022/08/11 13:41:46;;;;;;;1.80;1.70;;;;;;;;;;4974477;28;20225;-78
2022/08/11 13:44:16;;;;;;;1.75;1.50;;;;;;;;;;4976401;28;20204;-79
2022/08/11 13:46:53;;;;;;;3.05;1.60;;;;;;;;;;4975403;28;20197;-79
2022/08/11 13:49:22;;;;;;;3.08;1.60;;;;;;;;;;4976083;28;20226;-78
2022/08/11 13:51:51;;;;;;;2.63;1.90;;;;;;;;;;4974361;28;20206;-79
2022/08/11 13:54:21;;;;;;;3.35;1.60;;;;;;;;;;4974579;28;20584;-79
2022/08/11 13:56:53;;;;;;;4.53;1.80;;;;;;;;;;4974365;28;20200;-78
2022/08/11 13:59:22;;;;;;;1.75;1.50;;;;;;;;;;4976542;28;20683;-79
2022/08/11 14:02:02;;;;;;;2.17;1.90;;;;;;;;;;4974368;28;20222;-78
2022/08/11 14:04:53;;;;;;;2.40;1.77;;;;;;;;;;4973047;28;20229;-77
2022/08/11 14:07:23;;;;;;;3.50;1.70;;;;;;;;;;4973385;28;20190;-76
2022/08/11 14:09:56;;;;;;;2.13;1.92;;;;;;;;;;4973439;28;20229;-76
2022/08/11 14:15:18;;;;;;;1.95;1.75;;;;;;;;;;4974671;28;20205;-78
2022/08/11 14:17:49;;;;;;;1.95;1.73;;;;;;;;;;4975453;28;20225;-79
2022/08/11 14:20:19;;;;;;;3.63;1.90;;;;;;;;;;4975916;28;20214;-78
2022/08/11 14:23:07;;;;;;;3.38;1.67;;;;;;;;;;4974641;28;20228;-78
2022/08/11 14:25:36;;;;;;;3.03;1.80;;;;;;;;;;4961838;28;20203;-78
2022/08/11 14:28:32;;;;;;;4.68;1.70;;;;;;;;;;4967198;28;20237;-77
2022/08/11 14:31:09;;;;;;;3.83;1.63;;;;;;;;;;4975050;28;20186;-78
2022/08/11 14:33:38;;;;;;;3.38;1.73;;;;;;;;;;4974901;28;20209;-79
2022/08/11 14:36:27;;;;;;;3.28;1.80;;;;;;;;;;4974400;28;20209;-78
2022/08/11 14:38:57;;;;;;;2.90;1.70;;;;;;;;;;4974775;28;20233;-79
2022/08/11 14:47:21;;;;;;;1.75;1.65;;;;;;;;;;4975277;28;20216;-79
2022/08/11 14:49:54;;;;;;;2.13;1.80;;;;;;;;;;4975442;28;20305;-79
2022/08/11 14:52:40;;;;;;;3.85;1.75;;;;;;;;;;4975383;28;20197;-77
2022/08/11 14:57:56;;;;;;;2.30;1.67;;;;;;;;;;4978439;28;20666;-79
2022/08/11 15:00:26;;;;;;;1.77;1.67;;;;;;;;;;4978415;28;20198;-78
2022/08/11 15:03:09;;;;;;;2.20;1.40;;;;;;;;;;4977786;28;20214;-80
2022/08/11 15:05:40;;;;;;;1.98;1.75;;;;;;;;;;4978783;28;20614;-78
2022/08/11 15:08:53;;;;;;;2.80;1.65;;;;;;;;;;4978939;28;20231;-78
2022/08/11 15:13:55;;;;;;;2.08;1.65;;;;;;;;;;4978116;28;20202;-79
2022/08/11 15:19:12;;;;;;;2.75;1.60;;;;;;;;;;4977768;28;20570;-77
2022/08/11 15:24:26;;;;;;;1.73;1.63;;;;;;;;;;4969580;28;20201;-77
2022/08/11 15:38:11;;;;;;;7.25;1.80;;;;;;;;;;4977890;28;20305;-78
2022/08/11 15:46:17;;;;;;;2.13;1.70;;;;;;;;;;4977936;28;20190;-77
2022/08/11 15:48:52;;;;;;;5.20;1.80;;;;;;;;;;4977491;28;20225;-78
2022/08/11 15:51:22;;;;;;;4.57;1.92;;;;;;;;;;4977199;28;20194;-78
2022/08/11 15:53:53;;;;;;;1.58;1.40;;;;;;;;;;4977362;28;20236;-79
2022/08/11 15:56:25;;;;;;;2.80;1.50;;;;;;;;;;4978097;28;20743;-79
2022/08/11 16:04:50;;;;;;;3.13;1.70;;;;;;;;;;4974690;28;20201;-78
2022/08/11 16:07:25;;;;;;;2.67;1.80;;;;;;;;;;4978595;28;20213;-79
2022/08/11 16:09:56;;;;;;;2.15;1.65;;;;;;;;;;4976779;28;20259;-77
2022/08/11 16:12:29;;;;;;;2.35;1.70;;;;;;;;;;4977421;28;20200;-77
2022/08/11 16:17:49;;;;;;;4.53;1.70;;;;;;;;;;4969159;28;20224;-77
2022/08/11 16:20:21;;;;;;;2.70;1.48;;;;;;;;;;4976423;28;20625;-76
2022/08/11 16:23:04;;;;;;;3.15;1.60;;;;;;;;;;4976158;28;20209;-78
2022/08/11 16:25:38;;;;;;;2.45;1.42;;;;;;;;;;4976170;28;20209;-77
2022/08/11 16:28:28;;;;;;;2.17;1.67;;;;;;;;;;4975382;28;20806;-77
2022/08/11 16:30:57;;;;;;;1.95;1.80;;;;;;;;;;4975367;28;20203;-77
2022/08/11 16:33:26;;;;;;;3.67;1.70;;;;;;;;;;4975068;28;20214;-76
2022/08/11 16:39:17;;;;;;;4.13;1.65;;;;;;;;;;4933567;28;20226;-76
2022/08/11 16:47:45;;;;;;;3.53;1.55;;;;;;;;;;4954361;28;20194;-78
2022/08/11 16:50:31;;;;;;;3.47;1.60;;;;;;;;;;4971139;28;20213;-77
2022/08/11 16:53:01;;;;;;;4.00;1.90;;;;;;;;;;4974143;28;20606;-77
2022/08/11 16:55:33;;;;;;;2.50;1.80;;;;;;;;;;4960788;28;20576;-76
2022/08/11 17:01:07;;;;;;;3.22;1.73;;;;;;;;;;4973250;28;20237;-77
2022/08/11 17:14:53;;;;;;;1.58;1.48;;;;;;;;;;4973118;28;20256;-77
2022/08/11 17:17:25;;;;;;;2.50;1.60;;;;;;;;;;4971635;28;20205;-77
2022/08/11 17:19:56;;;;;;;3.33;1.67;;;;;;;;;;4972592;28;20225;-77
2022/08/11 17:25:34;;;;;;;1.80;1.50;;;;;;;;;;4972875;28;20264;-76
2022/08/11 17:28:23;;;;;;;2.63;1.77;;;;;;;;;;4973150;28;20225;-77
2022/08/11 17:36:37;;;;;;;3.92;2.10;;;;;;;;;;4972639;28;20217;-77
2022/08/11 17:39:11;;;;;;;4.13;2.20;;;;;;;;;;4972606;28;20257;-76
2022/08/11 17:50:03;;;;;;;3.08;2.15;;;;;;;;;;4970266;28;20691;-78
2022/08/11 18:01:09;;;;;;;3.60;2.47;;;;;;;;;;4972630;28;20194;-77
2022/08/11 18:03:39;;;;;;;3.10;2.33;;;;;;;;;;4973053;28;20253;-77
2022/08/11 18:06:09;;;;;;;3.03;2.17;;;;;;;;;;4973316;28;20373;-77
